Time;durP1;ratioP1;P1;durP2;ratioP2;P2;SDS_P1;SDS_P2;PMS_P1;PMS_P2;Temp;Humidity;BMP_temperature;BMP_pressure;BME280_temperature;BME280_humidity;BME280_pressure;Samples;Min_cycle;Max_cycle;Signal;HPM_P1;HPM_P2
2022/01/31 00:00:54;;;;;;;;;10.25;7.25;;;;;8.70;60.31;101626.59;5055341;28;46309;-74
2022/01/31 00:03:19;;;;;;;;;10.75;8.00;;;;;8.61;60.49;101614.81;5055171;28;45546;-77
2022/01/31 00:05:44;;;;;;;;;11.25;8.25;;;;;8.63;60.78;101593.84;5055666;28;45506;-78
2022/01/31 00:08:10;;;;;;;;;9.50;7.50;;;;;8.64;60.83;101590.28;5055501;28;46314;-75
2022/01/31 00:10:36;;;;;;;;;15.50;9.75;;;;;8.57;60.81;101576.72;5055153;28;46128;-77
2022/01/31 00:13:06;;;;;;;;;12.25;7.00;;;;;8.60;61.00;101586.16;5055180;28;45558;-74
2022/01/31 00:15:38;;;;;;;;;10.75;10.00;;;;;8.61;60.88;101569.56;5053885;28;45779;-75
2022/01/31 00:18:03;;;;;;;;;11.00;8.25;;;;;8.59;60.94;101569.63;5054471;28;46442;-74
2022/01/31 00:20:29;;;;;;;;;7.00;6.00;;;;;8.59;61.04;101548.72;5054373;28;46860;-75
2022/01/31 00:22:54;;;;;;;;;6.25;6.00;;;;;8.53;60.91;101540.38;5054496;28;45590;-74
2022/01/31 00:25:19;;;;;;;;;7.75;5.00;;;;;8.57;60.83;101540.13;5055323;28;45648;-76
2022/01/31 00:27:47;;;;;;;;;8.75;6.00;;;;;8.57;60.86;101539.28;5054501;28;46484;-76
2022/01/31 00:30:13;;;;;;;;;9.50;6.75;;;;;8.50;60.87;101530.91;5070344;28;45459;-76
2022/01/31 00:32:39;;;;;;;;;5.75;5.25;;;;;8.57;60.80;101534.06;5054814;28;45483;-77
2022/01/31 00:35:05;;;;;;;;;6.25;4.00;;;;;8.49;60.78;101525.72;5054619;28;45514;-75
2022/01/31 00:37:31;;;;;;;;;6.75;6.00;;;;;8.51;60.93;101527.38;5054422;28;47345;-75
2022/01/31 00:39:56;;;;;;;;;8.00;5.00;;;;;8.47;60.94;101504.09;5054284;28;46065;-76
2022/01/31 00:42:24;;;;;;;;;5.00;5.00;;;;;8.47;60.92;101517.16;5054503;28;45559;-75
2022/01/31 00:44:53;;;;;;;;;5.25;3.00;;;;;8.54;60.92;101521.13;5053747;28;45721;-75
2022/01/31 00:47:24;;;;;;;;;5.25;5.00;;;;;8.45;60.67;101517.22;5053019;28;46597;-75
2022/01/31 00:50:05;;;;;;;;;6.00;3.00;;;;;8.50;60.67;101541.34;5054451;28;46279;-76
2022/01/31 00:52:31;;;;;;;;;9.50;3.50;;;;;8.50;60.80;101536.13;5053034;28;45940;-77
2022/01/31 00:54:56;;;;;;;;;4.50;2.00;;;;;8.51;60.86;101522.16;5054434;28;45850;-77
2022/01/31 00:57:23;;;;;;;;;6.75;5.00;;;;;8.53;60.94;101529.91;5054185;28;45572;-76
2022/01/31 00:59:51;;;;;;;;;5.25;4.50;;;;;8.48;60.49;101516.19;5053915;28;47121;-77
2022/01/31 01:02:17;;;;;;;;;4.00;4.00;;;;;8.54;60.93;101521.13;5036707;28;45584;-77
2022/01/31 01:04:42;;;;;;;;;2.25;2.00;;;;;8.57;60.76;101505.34;5036055;28;45609;-79
2022/01/31 01:07:08;;;;;;;;;3.50;2.00;;;;;8.57;60.70;101497.50;5053031;28;47558;-79
2022/01/31 01:09:33;;;;;;;;;5.50;2.50;;;;;8.55;60.79;101494.97;5054387;28;45656;-78
2022/01/31 01:11:59;;;;;;;;;6.50;3.00;;;;;8.54;60.63;101472.38;5054326;28;45747;-78
2022/01/31 01:14:25;;;;;;;;;6.00;2.50;;;;;8.50;60.75;101481.28;5054820;28;45509;-78
2022/01/31 01:16:50;;;;;;;;;6.25;3.00;;;;;8.51;60.73;101479.50;5054040;28;47428;-78
2022/01/31 01:19:15;;;;;;;;;1.25;1.00;;;;;8.48;60.79;101463.97;5054005;28;46471;-78
2022/01/31 01:21:41;;;;;;;;;3.50;2.00;;;;;8.54;60.81;101458.47;5053950;28;45540;-79
2022/01/31 01:24:07;;;;;;;;;2.75;2.00;;;;;8.54;60.89;101464.53;5054208;28;45828;-79
2022/01/31 01:26:32;;;;;;;;;2.00;2.00;;;;;8.55;60.94;101466.22;5053967;28;46522;-79
2022/01/31 01:32:19;;;;;;;;;3.00;2.00;;;;;8.57;61.07;101433.06;5053975;28;45795;-78
2022/01/31 01:34:46;;;;;;;;;3.00;2.00;;;;;8.56;61.04;101405.25;5054649;28;45785;-76
2022/01/31 01:37:11;;;;;;;;;3.00;2.00;;;;;8.55;60.88;101393.09;5054512;28;45555;-77
2022/01/31 01:39:41;;;;;;;;;5.00;1.50;;;;;8.54;61.41;101398.41;5036736;28;46067;-77
2022/01/31 01:42:07;;;;;;;;;3.00;2.25;;;;;8.51;61.24;101382.91;5037028;28;45538;-78
2022/01/31 01:44:43;;;;;;;;;2.00;1.75;;;;;8.53;61.29;101399.34;5055339;28;45655;-79
2022/01/31 01:47:09;;;;;;;;;8.75;5.00;;;;;8.47;61.46;101403.09;5054745;28;46867;-78
2022/01/31 01:49:34;;;;;;;;;2.25;1.00;;;;;8.52;61.66;101389.81;5053885;28;46161;-78
2022/01/31 01:52:00;;;;;;;;;5.50;2.00;;;;;8.46;61.87;101377.91;5053675;28;45605;-79
2022/01/31 01:54:26;;;;;;;;;4.50;3.00;;;;;8.41;61.91;101375.53;5058423;28;45715;-77
2022/01/31 01:56:51;;;;;;;;;2.00;1.00;;;;;8.46;61.88;101390.97;5059032;28;45732;-78
2022/01/31 02:02:38;;;;;;;;;2.50;2.00;;;;;8.44;62.41;101395.41;5064668;28;45451;-77
2022/01/31 02:05:03;;;;;;;;;5.75;2.00;;;;;8.44;62.28;101387.56;5064598;28;45444;-76
2022/01/31 02:07:29;;;;;;;;;2.75;2.00;;;;;8.46;62.79;101390.13;5060285;28;47398;-76
2022/01/31 02:09:56;;;;;;;;;1.50;1.00;;;;;8.46;63.11;101385.75;5060404;28;45971;-79
2022/01/31 02:12:23;;;;;;;;;1.75;1.75;;;;;8.44;62.74;101377.13;5045311;28;45787;-77
2022/01/31 02:14:49;;;;;;;;;3.00;1.75;;;;;8.38;63.07;101364.38;5060238;28;45586;-75
2022/01/31 02:17:14;;;;;;;;;6.00;2.50;;;;;8.45;63.23;101384.03;5057579;28;46518;-74
2022/01/31 02:19:40;;;;;;;;;2.75;2.00;;;;;8.39;63.66;101353.00;5057092;28;45547;-75
2022/01/31 02:22:05;;;;;;;;;4.25;2.00;;;;;8.45;63.46;101347.50;5057926;28;45570;-76
2022/01/31 02:24:31;;;;;;;;;3.00;2.00;;;;;8.42;63.55;101350.28;5060829;28;45729;-75
2022/01/31 02:26:57;;;;;;;;;5.75;2.50;;;;;8.46;63.55;101359.63;5061941;28;47321;-76
2022/01/31 02:32:45;;;;;;;;;1.75;1.50;;;;;8.50;63.76;101342.88;5057432;28;45714;-78
2022/01/31 02:35:14;;;;;;;;;4.00;1.25;;;;;8.52;63.92;101329.75;5058733;28;45934;-78
2022/01/31 02:37:39;;;;;;;;;1.25;1.25;;;;;8.54;64.24;101322.66;5059143;28;45529;-76
2022/01/31 02:40:06;;;;;;;;;2.00;1.25;;;;;8.49;64.10;101329.88;5058803;28;45776;-77
2022/01/31 02:42:31;;;;;;;;;5.00;2.75;;;;;8.53;64.40;101331.44;5056994;28;45665;-76
2022/01/31 02:48:35;;;;;;;;;4.00;2.00;;;;;8.54;64.71;101312.22;5057139;28;46605;-77
2022/01/31 02:51:00;;;;;;;;;1.75;1.75;;;;;8.47;64.69;101310.88;5059242;28;46235;-78
2022/01/31 02:53:29;;;;;;;;;2.00;1.25;;;;;8.51;65.13;101291.50;5057015;28;45534;-79
2022/01/31 02:55:57;;;;;;;;;2.75;1.50;;;;;8.47;65.26;101310.88;5056962;28;45514;-79
2022/01/31 02:58:24;;;;;;;;;2.00;1.50;;;;;8.57;66.16;101312.06;5056937;28;45718;-81
2022/01/31 03:00:50;;;;;;;;;1.25;0.00;;;;;8.57;66.80;101285.97;5056616;28;46634;-79
2022/01/31 03:03:16;;;;;;;;;1.75;1.25;;;;;8.59;67.71;101295.38;5056484;28;45824;-80
2022/01/31 03:05:42;;;;;;;;;3.50;1.00;;;;;8.54;68.21;101294.78;5056865;28;45820;-81
2022/01/31 03:08:07;;;;;;;;;1.00;1.00;;;;;8.53;68.19;101250.50;5054786;28;46454;-75
2022/01/31 03:10:33;;;;;;;;;1.00;0.25;;;;;8.66;68.26;101267.19;5055697;28;45988;-77
2022/01/31 03:13:00;;;;;;;;;2.00;1.00;;;;;8.66;67.98;101249.75;5055804;28;45672;-76
2022/01/31 03:15:26;;;;;;;;;2.00;1.00;;;;;8.66;67.86;101269.81;5055370;28;45863;-79
2022/01/31 03:17:51;;;;;;;;;1.00;1.00;;;;;8.67;67.98;101227.09;5055899;28;47575;-79
2022/01/31 03:20:19;;;;;;;;;0.75;0.25;;;;;8.70;68.13;101253.03;5055617;28;46451;-79
2022/01/31 03:22:45;;;;;;;;;1.00;1.00;;;;;8.61;68.11;101225.66;5056166;28;45672;-76
2022/01/31 03:25:11;;;;;;;;;0.00;0.00;;;;;8.68;68.21;101247.91;5055962;28;45922;-80
2022/01/31 03:27:37;;;;;;;;;1.00;0.00;;;;;8.65;68.43;101228.94;5055767;28;46458;-76
2022/01/31 03:33:24;;;;;;;;;3.00;1.00;;;;;8.71;68.52;101257.34;5055627;28;45681;-76
2022/01/31 03:35:50;;;;;;;;;1.00;0.25;;;;;8.71;69.85;101278.25;5037656;28;45976;-76
2022/01/31 03:38:15;;;;;;;;;1.00;1.00;;;;;8.71;69.81;101252.13;5055766;28;45635;-77
2022/01/31 03:40:41;;;;;;;;;1.25;0.00;;;;;8.71;70.10;101247.75;5055655;28;45632;-76
2022/01/31 03:43:06;;;;;;;;;1.00;0.50;;;;;8.71;69.91;101259.94;5055241;28;45540;-76
2022/01/31 03:48:53;;;;;;;;;1.00;0.50;;;;;8.77;70.14;101225.66;5054673;28;45948;-80
2022/01/31 03:51:18;;;;;;;;;1.75;1.00;;;;;8.77;70.15;101244.81;5055752;28;45992;-78
2022/01/31 03:53:44;;;;;;;;;3.00;1.75;;;;;8.79;70.77;101218.59;5055180;28;46011;-78
2022/01/31 03:56:10;;;;;;;;;0.50;0.50;;;;;8.80;71.69;101218.50;5055776;28;45770;-78
2022/01/31 03:58:35;;;;;;;;;1.00;0.00;;;;;8.79;71.71;101197.72;5055536;28;47129;-77
2022/01/31 04:01:01;;;;;;;;;0.00;0.00;;;;;8.79;72.58;101200.31;5055063;28;46436;-77
2022/01/31 04:03:27;;;;;;;;;0.00;0.00;;;;;8.79;72.05;101182.03;5054008;28;45811;-77
2022/01/31 04:05:52;;;;;;;;;2.00;0.25;;;;;8.78;72.72;101232.59;5055339;28;45801;-81
2022/01/31 04:08:18;;;;;;;;;0.75;0.75;;;;;8.78;73.46;101246.50;5055329;28;45525;-78
2022/01/31 04:10:44;;;;;;;;;1.25;0.00;;;;;8.77;73.30;101233.50;5055415;28;45607;-77
2022/01/31 04:13:09;;;;;;;;;0.00;0.00;;;;;8.63;74.11;101229.03;5054480;28;45573;-77
2022/01/31 04:18:56;;;;;;;;;1.00;0.00;;;;;8.71;75.71;101267.78;5054700;28;45565;-75
2022/01/31 04:21:22;;;;;;;;;0.00;0.00;;;;;8.68;75.98;101242.69;5055401;28;46136;-77
2022/01/31 04:23:50;;;;;;;;;1.00;0.00;;;;;8.65;75.63;101239.38;5037235;28;45571;-75
2022/01/31 04:26:16;;;;;;;;;0.00;0.00;;;;;8.66;75.66;101234.09;5055325;28;45591;-76
2022/01/31 04:34:46;;;;;;;;;1.00;0.25;;;;;8.75;75.86;101230.97;5054942;28;45691;-78
2022/01/31 04:37:12;;;;;;;;;0.00;0.00;;;;;8.74;76.19;101242.38;5053386;28;45546;-78
2022/01/31 04:39:37;;;;;;;;;0.25;0.00;;;;;8.80;75.48;101265.53;5054886;28;45479;-77
2022/01/31 04:42:03;;;;;;;;;1.25;0.00;;;;;8.82;75.29;101255.84;5054954;28;46456;-76
2022/01/31 04:44:29;;;;;;;;;0.00;0.00;;;;;8.81;74.95;101254.16;5054602;28;45696;-80
2022/01/31 04:46:54;;;;;;;;;2.00;0.00;;;;;8.84;75.05;101243.56;5054873;28;45546;-77
2022/01/31 04:49:20;;;;;;;;;1.00;1.00;;;;;8.84;75.08;101237.50;5053361;28;46511;-77
2022/01/31 04:51:46;;;;;;;;;0.00;0.00;;;;;8.85;75.16;101250.44;5054296;28;46355;-76
2022/01/31 04:54:12;;;;;;;;;1.00;1.00;;;;;8.90;74.64;101233.72;5054697;28;45698;-77
2022/01/31 04:56:40;;;;;;;;;1.00;1.00;;;;;8.87;74.67;101207.72;5054387;28;45905;-78
2022/01/31 04:59:05;;;;;;;;;1.00;1.00;;;;;8.90;74.84;101216.25;5054444;28;46792;-76
2022/01/31 05:01:31;;;;;;;;;0.75;0.50;;;;;8.87;74.49;101255.59;5054087;28;45648;-76
2022/01/31 05:03:57;;;;;;;;;0.75;0.00;;;;;8.91;74.72;101241.44;5036396;28;45527;-79
2022/01/31 05:06:29;;;;;;;;;0.00;0.00;;;;;8.96;74.80;101255.09;5054649;28;45504;-80
2022/01/31 05:08:54;;;;;;;;;0.75;0.00;;;;;8.97;73.97;101261.16;5054886;28;46421;-79
2022/01/31 05:11:20;;;;;;;;;0.00;0.00;;;;;8.99;73.95;101280.22;5054329;28;46355;-76
2022/01/31 05:13:46;;;;;;;;;0.00;0.00;;;;;9.00;73.76;101248.81;5054268;28;45601;-79
2022/01/31 05:19:33;;;;;;;;;0.00;0.00;;;;;9.06;72.98;101264.16;5054297;28;46034;-78
2022/01/31 05:21:58;;;;;;;;;0.75;0.00;;;;;9.04;72.15;101266.00;5054320;28;46768;-78
2022/01/31 05:24:24;;;;;;;;;0.25;0.25;;;;;9.17;72.00;101271.41;5054379;28;45633;-80
2022/01/31 05:26:51;;;;;;;;;0.00;0.00;;;;;9.16;71.98;101308.94;5054349;28;45626;-78
2022/01/31 05:29:17;;;;;;;;;0.00;0.00;;;;;9.16;71.73;101257.50;5054017;28;47363;-78
2022/01/31 05:35:05;;;;;;;;;0.00;0.00;;;;;9.22;70.06;101275.47;5057218;28;45665;-77
2022/01/31 05:37:31;;;;;;;;;0.00;0.00;;;;;9.19;69.65;101283.44;5057518;28;45724;-79
2022/01/31 05:39:57;;;;;;;;;0.00;0.00;;;;;9.21;69.26;101283.38;5057152;28;46781;-75
2022/01/31 05:42:22;;;;;;;;;1.75;0.25;;;;;9.25;68.99;101301.41;5057116;28;46197;-75
2022/01/31 05:44:48;;;;;;;;;0.75;0.00;;;;;9.27;69.14;101304.81;5057780;28;45724;-75
2022/01/31 05:47:17;;;;;;;;;1.00;1.00;;;;;9.25;68.25;101322.34;5058861;28;45592;-77
2022/01/31 05:49:42;;;;;;;;;0.00;0.00;;;;;9.29;68.58;101270.72;5058782;28;46581;-76
2022/01/31 05:52:08;;;;;;;;;1.75;0.25;;;;;9.22;67.91;101272.84;5058963;28;46418;-76
2022/01/31 05:54:36;;;;;;;;;1.00;0.50;;;;;9.30;68.04;101287.25;5074513;28;45906;-77
2022/01/31 05:57:03;;;;;;;;;0.75;0.75;;;;;9.30;67.83;101289.88;5059919;28;45731;-75
2022/01/31 05:59:28;;;;;;;;;1.00;1.00;;;;;9.30;67.60;101280.25;5059577;28;46632;-76
2022/01/31 06:05:15;;;;;;;;;0.00;0.00;;;;;9.23;66.77;101273.69;5076277;28;45472;-78
2022/01/31 06:07:41;;;;;;;;;1.00;0.50;;;;;9.21;66.77;101275.53;5076801;28;45064;-76
2022/01/31 06:10:06;;;;;;;;;1.00;0.00;;;;;9.23;66.56;101290.19;5077640;28;46549;-76
2022/01/31 06:12:32;;;;;;;;;1.50;1.00;;;;;9.10;66.39;101270.03;5076864;28;46422;-76
2022/01/31 06:14:57;;;;;;;;;1.00;1.00;;;;;9.18;66.48;101281.75;5071149;28;46201;-78
2022/01/31 06:17:23;;;;;;;;;0.00;0.00;;;;;9.22;66.34;101288.53;5065681;28;45503;-77
2022/01/31 06:19:48;;;;;;;;;0.00;0.00;;;;;9.17;66.13;101281.88;5072325;28;46267;-78
2022/01/31 06:22:14;;;;;;;;;0.50;0.00;;;;;9.16;65.98;101306.31;5069571;28;46120;-76
2022/01/31 06:24:40;;;;;;;;;1.00;0.00;;;;;9.16;65.78;101312.38;5065456;28;45854;-76
2022/01/31 06:27:05;;;;;;;;;2.50;0.00;;;;;9.15;65.86;101292.41;5071925;28;45226;-74
2022/01/31 06:29:31;;;;;;;;;1.25;0.50;;;;;9.12;65.59;101274.25;5065549;28;46538;-76
2022/01/31 06:35:18;;;;;;;;;0.50;0.00;;;;;9.08;65.12;101270.13;5062498;28;45551;-76
2022/01/31 06:37:43;;;;;;;;;0.50;0.25;;;;;9.08;65.54;101298.88;5057515;28;45777;-75
2022/01/31 06:40:09;;;;;;;;;1.00;1.00;;;;;9.12;65.07;101302.19;5056311;28;46783;-77
2022/01/31 06:42:35;;;;;;;;;1.25;0.75;;;;;9.10;65.07;101285.72;5056111;28;46199;-76
2022/01/31 06:45:01;;;;;;;;;1.00;0.00;;;;;9.05;65.02;101285.13;5056175;28;45604;-75
2022/01/31 06:51:01;;;;;;;;;0.00;0.00;;;;;9.04;64.86;101289.50;5054196;28;45844;-77
2022/01/31 06:53:29;;;;;;;;;0.75;0.75;;;;;9.04;64.62;101307.81;5055480;28;46931;-76
2022/01/31 06:55:55;;;;;;;;;2.00;1.00;;;;;8.90;64.71;101280.75;5054107;28;45786;-78
2022/01/31 06:58:21;;;;;;;;;1.00;0.00;;;;;8.93;64.73;101281.41;5055662;28;45499;-74
2022/01/31 07:00:47;;;;;;;;;2.00;0.25;;;;;8.98;64.46;101305.53;5054005;28;46443;-76
2022/01/31 07:03:13;;;;;;;;;0.00;0.00;;;;;8.96;64.51;101299.53;5055929;28;46402;-76
2022/01/31 07:05:43;;;;;;;;;1.25;1.00;;;;;8.85;64.18;101307.94;5056698;28;45582;-78
2022/01/31 07:08:09;;;;;;;;;1.00;0.00;;;;;8.88;64.29;101317.38;5055366;28;45589;-78
2022/01/31 07:10:34;;;;;;;;;0.75;0.75;;;;;8.87;64.16;101333.13;5055192;28;46368;-77
2022/01/31 07:13:03;;;;;;;;;0.25;0.00;;;;;8.79;64.12;101303.06;5054062;28;47073;-76
2022/01/31 07:21:53;;;;;;;;;1.00;1.00;;;;;8.83;63.97;101333.31;5055151;28;46208;-74
2022/01/31 07:25:02;;;;;;;;;1.00;0.00;;;;;8.78;64.05;101335.31;5055207;28;47061;-76
2022/01/31 07:27:11;;;;;;;;;4.50;1.00;;;;;8.81;64.01;101353.44;5053694;28;46096;-77
2022/01/31 07:29:38;;;;;;;;;2.25;0.00;;;;;8.81;64.09;101353.44;5055600;28;45557;-77
2022/01/31 07:32:04;;;;;;;;;0.00;0.00;;;;;8.80;64.27;101350.91;5036963;28;47598;-78
2022/01/31 07:34:30;;;;;;;;;0.00;0.00;;;;;8.74;63.98;101333.81;5055113;28;46342;-77
2022/01/31 07:36:56;;;;;;;;;0.25;0.00;;;;;8.77;63.93;101361.50;5055148;28;45685;-76
2022/01/31 07:39:21;;;;;;;;;0.00;0.00;;;;;8.75;63.83;101345.91;5055140;28;45538;-77
2022/01/31 07:41:48;;;;;;;;;0.75;0.75;;;;;8.78;64.04;101340.53;5054489;28;48247;-75
2022/01/31 07:44:14;;;;;;;;;0.50;0.00;;;;;8.81;63.85;101356.06;5053799;28;47047;-75
2022/01/31 07:46:40;;;;;;;;;1.25;0.25;;;;;8.75;63.52;101332.84;5055469;28;45733;-76
2022/01/31 07:49:07;;;;;;;;;2.50;2.00;;;;;8.81;63.52;101369.13;5054907;28;45859;-75
2022/01/31 07:51:39;;;;;;;;;1.00;0.00;;;;;8.82;63.52;101383.03;5054274;28;46793;-75
2022/01/31 07:54:05;;;;;;;;;0.50;0.00;;;;;8.83;62.91;101372.50;5069198;28;45974;-77
2022/01/31 07:56:31;;;;;;;;;2.00;0.00;;;;;8.82;62.88;101373.41;5054913;28;45755;-75
2022/01/31 07:58:56;;;;;;;;;1.75;1.00;;;;;8.85;63.09;101386.31;5054807;28;45623;-77
2022/01/31 08:01:22;;;;;;;;;0.00;0.00;;;;;8.72;62.90;101343.47;5053949;28;46044;-74
2022/01/31 08:03:47;;;;;;;;;0.50;0.50;;;;;8.77;62.85;101375.44;5055257;28;45732;-76
2022/01/31 08:06:14;;;;;;;;;1.00;0.50;;;;;8.78;62.89;101369.28;5055268;28;45813;-73
2022/01/31 08:08:41;;;;;;;;;2.00;1.50;;;;;8.87;62.73;101383.63;5055553;28;45570;-77
2022/01/31 08:11:07;;;;;;;;;1.75;0.75;;;;;8.90;62.77;101408.78;5054703;28;46744;-77
2022/01/31 08:13:33;;;;;;;;;2.00;0.00;;;;;8.79;62.79;101402.34;5054261;28;45697;-77
2022/01/31 08:22:24;;;;;;;;;1.00;1.00;;;;;8.88;62.83;101401.00;5054366;28;45763;-73
2022/01/31 08:24:49;;;;;;;;;0.25;0.00;;;;;8.89;62.69;101409.69;5054478;28;45678;-75
2022/01/31 08:27:15;;;;;;;;;0.00;0.00;;;;;8.88;62.61;101426.28;5054828;28;45716;-75
2022/01/31 08:29:40;;;;;;;;;0.00;0.00;;;;;8.88;62.46;101397.53;5054437;28;45726;-76
2022/01/31 08:32:16;;;;;;;;;1.75;0.75;;;;;8.86;63.01;101379.31;5053769;28;46692;-78
2022/01/31 08:37:27;;;;;;;;;1.75;1.00;;;;;8.91;63.00;101379.94;5054278;28;45533;-80
2022/01/31 08:39:53;;;;;;;;;1.00;1.00;;;;;8.89;63.12;101392.25;5054673;28;45711;-78
2022/01/31 08:42:18;;;;;;;;;1.25;1.00;;;;;8.95;63.08;101401.53;5053993;28;46362;-79
2022/01/31 08:44:46;;;;;;;;;1.75;1.00;;;;;8.98;63.44;101393.53;5036029;28;46870;-74
2022/01/31 08:47:12;;;;;;;;;1.75;0.00;;;;;9.00;62.98;101391.69;5054073;28;45829;-76
2022/01/31 08:49:37;;;;;;;;;1.75;1.00;;;;;9.01;63.23;101396.00;5054347;28;45860;-77
2022/01/31 08:52:04;;;;;;;;;2.25;1.00;;;;;9.03;63.18;101421.13;5053753;28;46307;-75
2022/01/31 08:54:30;;;;;;;;;1.75;1.00;;;;;8.98;63.26;101410.06;5054225;28;46056;-76
2022/01/31 08:56:56;;;;;;;;;2.25;1.00;;;;;9.06;63.35;101444.50;5053873;28;45706;-74
2022/01/31 08:59:25;;;;;;;;;0.00;0.00;;;;;8.99;63.33;101443.13;5054118;28;45683;-75
2022/01/31 09:05:12;;;;;;;;;2.00;0.00;;;;;9.07;63.08;101416.59;5053768;28;45792;-77
2022/01/31 09:07:37;;;;;;;;;2.00;1.50;;;;;9.08;62.96;101420.88;5053088;28;46055;-74
2022/01/31 09:10:04;;;;;;;;;1.00;0.00;;;;;9.10;62.91;101411.19;5054294;28;45566;-76
2022/01/31 09:12:32;;;;;;;;;1.50;1.00;;;;;9.09;62.69;101405.13;5053808;28;46438;-78
2022/01/31 09:14:58;;;;;;;;;1.00;0.25;;;;;9.11;62.46;101425.97;5054248;28;46317;-78
2022/01/31 09:20:45;;;;;;;;;2.50;1.00;;;;;9.02;62.07;101380.22;5053888;28;45627;-74
2022/01/31 09:23:10;;;;;;;;;2.75;1.00;;;;;9.08;62.02;101386.91;5053454;28;46441;-78
2022/01/31 09:25:37;;;;;;;;;1.00;0.50;;;;;9.12;61.96;101398.91;5053681;28;45898;-74
2022/01/31 09:28:03;;;;;;;;;0.25;0.00;;;;;9.16;62.24;101413.50;5053191;28;45559;-76
2022/01/31 09:30:29;;;;;;;;;3.75;1.00;;;;;9.17;61.99;101409.97;5053997;28;45655;-77
2022/01/31 09:36:16;;;;;;;;;1.00;1.00;;;;;9.22;61.65;101405.34;5053477;28;46048;-76
2022/01/31 09:38:42;;;;;;;;;2.00;1.50;;;;;9.24;61.65;101430.44;5053733;28;46028;-76
2022/01/31 09:41:10;;;;;;;;;1.00;1.00;;;;;9.28;61.61;101412.84;5053460;28;45875;-77
2022/01/31 09:44:04;;;;;;;;;1.00;0.00;;;;;9.31;61.28;101404.84;5053234;28;46432;-77
2022/01/31 09:46:45;;;;;;;;;1.00;1.00;;;;;9.22;61.15;101385.25;5053441;28;46076;-77
2022/01/31 09:52:33;;;;;;;;;2.50;1.00;;;;;9.43;61.03;101419.88;5049742;28;45838;-77
2022/01/31 09:54:58;;;;;;;;;1.75;1.00;;;;;9.46;60.59;101430.16;5052999;28;47768;-78
2022/01/31 09:57:24;;;;;;;;;2.50;0.00;;;;;9.48;60.04;101417.03;5053176;28;46145;-80
2022/01/31 09:59:49;;;;;;;;;0.50;0.50;;;;;9.48;59.56;101433.56;5052420;28;45515;-78
2022/01/31 10:02:14;;;;;;;;;1.00;0.25;;;;;9.46;59.90;101431.94;5052698;28;45615;-78
2022/01/31 10:04:45;;;;;;;;;1.75;0.00;;;;;9.52;59.74;101427.22;5034818;28;48466;-78
2022/01/31 10:07:14;;;;;;;;;1.00;1.00;;;;;9.50;59.84;101407.34;5052739;28;47082;-79
2022/01/31 10:09:45;;;;;;;;;2.00;0.25;;;;;9.58;59.57;101475.75;5053171;28;45806;-79
2022/01/31 10:17:41;;;;;;;;;0.00;0.00;;;;;9.53;57.72;101541.41;5053983;28;46085;-78
2022/01/31 10:20:08;;;;;;;;;0.00;0.00;;;;;9.51;57.23;101459.53;5055073;28;45935;-77
2022/01/31 10:22:36;;;;;;;;;2.00;0.00;;;;;9.52;57.93;101447.31;5056466;28;45748;-77
2022/01/31 10:25:10;;;;;;;;;0.00;0.00;;;;;9.53;57.70;101469.94;5056006;28;46498;-78
2022/01/31 10:27:36;;;;;;;;;2.00;0.00;;;;;9.56;57.30;101467.97;5021925;28;46112;-77
2022/01/31 10:30:19;;;;;;;;;1.25;0.75;;;;;9.61;57.52;101450.28;5055856;28;45705;-77
2022/01/31 10:32:48;;;;;;;;;0.00;0.00;;;;;9.66;58.25;101450.88;5056387;28;45722;-78
2022/01/31 10:35:22;;;;;;;;;1.00;0.00;;;;;9.64;64.95;101475.44;5038446;28;46649;-77
2022/01/31 10:37:49;;;;;;;;;0.00;0.00;;;;;9.46;69.04;101477.25;5056042;28;45926;-79
2022/01/31 10:43:40;;;;;;;;;2.25;0.25;;;;;9.03;69.11;101476.00;5055732;28;45602;-78
2022/01/31 10:57:14;;;;;;;;;1.75;0.00;;;;;8.55;74.95;101487.13;5055999;28;45541;-76
2022/01/31 10:59:43;;;;;;;;;1.00;0.00;;;;;8.49;73.45;101471.75;5055537;28;46957;-78
2022/01/31 11:05:30;;;;;;;;;2.00;1.00;;;;;8.60;71.63;101469.47;5055616;28;45779;-78
2022/01/31 11:08:14;;;;;;;;;1.00;0.00;;;;;8.63;72.19;101473.69;5055496;28;46716;-79
2022/01/31 11:10:41;;;;;;;;;1.00;0.00;;;;;8.71;72.71;101497.66;5055318;28;46090;-79
2022/01/31 11:13:08;;;;;;;;;1.75;0.00;;;;;8.69;71.46;101491.69;5055469;28;45730;-78
2022/01/31 11:15:34;;;;;;;;;1.75;1.00;;;;;8.73;71.70;101461.88;5055792;28;45630;-76
2022/01/31 11:21:28;;;;;;;;;2.75;1.00;;;;;8.91;71.18;101455.72;5055047;28;45916;-78
2022/01/31 11:24:00;;;;;;;;;1.25;0.00;;;;;8.99;72.89;101502.38;5055504;28;45753;-79
2022/01/31 11:26:34;;;;;;;;;2.50;0.50;;;;;9.06;73.79;101468.03;5055476;28;45790;-77
2022/01/31 11:29:01;;;;;;;;;1.00;1.00;;;;;9.03;72.01;101506.50;5054116;28;46870;-78
2022/01/31 11:31:27;;;;;;;;;1.00;1.00;;;;;9.11;71.58;101484.31;5055064;28;46037;-76
2022/01/31 11:37:20;;;;;;;;;1.50;0.00;;;;;9.15;69.35;101526.81;5054887;28;45598;-78
2022/01/31 11:39:51;;;;;;;;;1.25;1.00;;;;;9.13;71.38;101460.69;5054984;28;46466;-76
2022/01/31 11:42:17;;;;;;;;;0.00;0.00;;;;;9.05;71.24;101463.72;5054954;28;46420;-78
2022/01/31 11:44:49;;;;;;;;;1.00;0.00;;;;;9.14;72.88;101493.75;5054848;28;45762;-79
2022/01/31 11:53:43;;;;;;;;;1.50;0.00;;;;;9.19;71.57;101484.75;5053794;28;46063;-79
2022/01/31 11:56:21;;;;;;;;;0.00;0.00;;;;;9.28;74.50;101528.72;5036581;28;45753;-78
2022/01/31 11:58:51;;;;;;;;;1.50;0.00;;;;;9.30;72.39;101585.31;5054910;28;45656;-79
2022/01/31 12:01:18;;;;;;;;;0.50;0.00;;;;;9.19;75.25;101550.13;5054202;28;46293;-78
2022/01/31 12:07:43;;;;;;;;;1.00;0.25;;;;;8.74;73.50;101542.78;5054128;28;45628;-77
2022/01/31 12:10:31;;;;;;;;;1.25;0.00;;;;;8.57;75.17;101547.97;5054889;28;45586;-77
2022/01/31 12:13:02;;;;;;;;;0.00;0.00;;;;;8.43;73.89;101519.03;5054470;28;46623;-76
2022/01/31 12:15:46;;;;;;;;;2.75;0.50;;;;;8.35;74.78;101511.59;5053595;28;46077;-79
2022/01/31 12:24:05;;;;;;;;;1.00;0.00;;;;;8.22;76.68;101539.13;5054249;28;46176;-77
2022/01/31 12:26:56;;;;;;;;;0.00;0.00;;;;;8.20;76.39;101517.50;5053028;28;46362;-78
2022/01/31 12:29:25;;;;;;;;;1.00;1.00;;;;;8.21;76.02;101521.78;5053696;28;45825;-79
2022/01/31 12:32:09;;;;;;;;;0.00;0.00;;;;;8.28;77.49;101530.19;5036178;28;45902;-79
2022/01/31 12:34:38;;;;;;;;;2.00;0.00;;;;;8.35;76.74;101501.16;5053980;28;46498;-78
2022/01/31 12:37:22;;;;;;;;;1.25;0.00;;;;;8.41;72.92;101513.91;5054607;28;45883;-77
2022/01/31 12:39:57;;;;;;;;;1.25;0.25;;;;;8.40;73.54;101501.78;5052653;28;45658;-78
2022/01/31 12:45:27;;;;;;;;;0.50;0.50;;;;;8.66;73.46;101504.88;5053934;28;46763;-77
2022/01/31 12:51:15;;;;;;;;;0.50;0.00;;;;;8.72;74.54;101521.13;5053772;28;45644;-78
2022/01/31 12:53:45;;;;;;;;;1.00;0.00;;;;;8.82;72.35;101539.78;5053942;28;45641;-79
2022/01/31 12:56:12;;;;;;;;;0.25;0.00;;;;;8.89;70.04;101571.69;5053494;28;45688;-79
2022/01/31 12:58:54;;;;;;;;;0.00;0.00;;;;;8.85;71.84;101561.38;5053451;28;46000;-79
2022/01/31 13:01:38;;;;;;;;;0.75;0.75;;;;;8.87;69.28;101532.56;5053278;28;45730;-81
2022/01/31 13:07:27;;;;;;;;;0.00;0.00;;;;;8.78;69.26;101533.03;5052687;28;45595;-79
2022/01/31 13:09:52;;;;;;;;;0.00;0.00;;;;;8.94;67.51;101604.53;5034774;28;46430;-78
2022/01/31 13:12:20;;;;;;;;;0.00;0.00;;;;;8.93;66.94;101599.38;5052585;28;45608;-81
2022/01/31 13:14:50;;;;;;;;;0.00;0.00;;;;;8.94;71.35;101552.25;5053376;28;45731;-80
2022/01/31 13:17:23;;;;;;;;;0.00;0.00;;;;;8.87;66.29;101563.94;5053264;28;45680;-80
2022/01/31 13:23:10;;;;;;;;;0.00;0.00;;;;;8.97;66.72;101553.88;5054494;28;45634;-81
2022/01/31 13:25:35;;;;;;;;;0.00;0.00;;;;;8.96;66.22;101552.19;5053441;28;45947;-81
2022/01/31 13:28:01;;;;;;;;;0.00;0.00;;;;;8.93;67.00;101552.31;5054982;28;45848;-79
2022/01/31 13:30:30;;;;;;;;;0.00;0.00;;;;;8.99;67.87;101567.72;5062093;28;45547;-79
2022/01/31 13:32:56;;;;;;;;;1.00;0.00;;;;;8.98;67.83;101540.72;5045739;28;45800;-80
2022/01/31 13:38:44;;;;;;;;;0.75;0.75;;;;;8.99;64.55;101531.13;5052772;28;45724;-81
2022/01/31 13:41:11;;;;;;;;;0.50;0.00;;;;;9.14;63.57;101565.19;5053685;28;46123;-81
2022/01/31 13:43:39;;;;;;;;;0.25;0.00;;;;;9.15;68.78;101566.03;5055767;28;45887;-79
2022/01/31 13:46:21;;;;;;;;;0.00;0.00;;;;;9.15;62.59;101589.56;5053367;28;45796;-80
2022/01/31 13:48:56;;;;;;;;;1.00;0.00;;;;;9.12;62.97;101611.47;5053288;28;45575;-81
2022/01/31 13:51:36;;;;;;;;;0.00;0.00;;;;;9.12;67.77;101582.69;5053299;28;46272;-81
2022/01/31 13:54:08;;;;;;;;;1.50;0.25;;;;;9.08;66.41;101609.06;5056095;28;45875;-80